Time;durP1;ratioP1;P1;durP2;ratioP2;P2;SDS_P1;SDS_P2;PMS_P1;PMS_P2;Temp;Humidity;BMP_temperature;BMP_pressure;BME280_temperature;BME280_humidity;BME280_pressure;Samples;Min_cycle;Max_cycle;Signal;HPM_P1;HPM_P2
2022/11/07 00:02:50;;;;;;;4.03;3.83;;;12.00;99.90;;;;;;10436397;28;20228;-81
2022/11/07 00:07:52;;;;;;;3.60;3.40;;;12.00;99.90;;;;;;10443518;28;20758;-82
2022/11/07 00:12:55;;;;;;;3.33;3.03;;;12.00;99.90;;;;;;10419904;28;20194;-82
2022/11/07 00:17:58;;;;;;;3.03;2.93;;;12.00;99.90;;;;;;10428114;28;20221;-81
2022/11/07 00:23:00;;;;;;;3.60;3.50;;;12.00;99.90;;;;;;10435023;28;20265;-82
2022/11/07 00:28:03;;;;;;;3.27;3.07;;;11.90;99.90;;;;;;10414153;28;20225;-80
2022/11/07 00:33:05;;;;;;;2.90;2.70;;;11.90;99.90;;;;;;10434989;28;20631;-79
2022/11/07 00:38:08;;;;;;;3.27;3.17;;;12.00;99.90;;;;;;10401338;28;20284;-81
2022/11/07 00:43:11;;;;;;;2.70;2.60;;;12.00;99.90;;;;;;10418999;28;20225;-80
2022/11/07 00:48:13;;;;;;;3.40;3.20;;;12.00;99.90;;;;;;10454974;28;20509;-79
2022/11/07 00:53:15;;;;;;;2.30;2.20;;;12.00;99.90;;;;;;10420114;28;20280;-78
2022/11/07 00:58:18;;;;;;;3.47;2.50;;;12.10;99.90;;;;;;10396371;28;20646;-80
2022/11/07 01:08:55;;;;;;;2.53;2.43;;;12.20;99.90;;;;;;10290032;28;20196;-80
2022/11/07 01:14:00;;;;;;;2.50;2.40;;;12.20;99.90;;;;;;10386739;28;20228;-79
2022/11/07 01:19:03;;;;;;;2.60;2.50;;;12.20;99.90;;;;;;10397590;23;20248;-80
2022/11/07 01:24:08;;;;;;;3.13;3.00;;;12.10;99.90;;;;;;10358677;28;20191;-80
2022/11/07 01:29:11;;;;;;;11.03;8.67;;;12.10;99.90;;;;;;10383853;28;20322;-80
2022/11/07 01:34:13;;;;;;;3.00;2.90;;;12.10;99.90;;;;;;10383490;28;20203;-80
2022/11/07 01:39:16;;;;;;;3.27;2.40;;;12.10;99.90;;;;;;10384185;28;20256;-80
2022/11/07 01:44:52;;;;;;;2.87;2.67;;;12.10;99.90;;;;;;10384241;28;20198;-80
2022/11/07 01:49:54;;;;;;;2.67;2.37;;;12.10;99.90;;;;;;10382285;28;20681;-80
2022/11/07 01:55:04;;;;;;;3.07;2.83;;;12.00;99.90;;;;;;10383404;28;20218;-80
2022/11/07 02:00:11;;;;;;;2.50;2.40;;;12.00;99.90;;;;;;10362426;28;20275;-80
2022/11/07 02:05:17;;;;;;;2.90;2.70;;;12.00;99.90;;;;;;10379531;28;20222;-80
2022/11/07 02:10:20;;;;;;;3.37;3.10;;;12.00;99.90;;;;;;10380743;28;20261;-80
2022/11/07 02:15:25;;;;;;;2.73;2.63;;;12.10;99.90;;;;;;10378721;28;20230;-80
2022/11/07 02:20:27;;;;;;;3.30;3.07;;;12.10;99.90;;;;;;10366865;28;20210;-80
2022/11/07 02:25:30;;;;;;;2.80;2.70;;;12.10;99.90;;;;;;10382638;28;20221;-80
2022/11/07 02:30:34;;;;;;;2.90;2.70;;;12.20;99.90;;;;;;10383641;28;20245;-80
2022/11/07 02:35:38;;;;;;;3.03;2.90;;;12.20;99.90;;;;;;10382507;28;20221;-81
2022/11/07 02:40:44;;;;;;;3.10;2.90;;;12.20;99.90;;;;;;10382730;28;20214;-81
2022/11/07 02:45:48;;;;;;;3.30;3.20;;;12.30;99.90;;;;;;10383849;28;20221;-80
2022/11/07 02:50:51;;;;;;;3.93;3.73;;;12.30;99.90;;;;;;10385177;28;20199;-80
2022/11/07 02:55:54;;;;;;;4.40;4.10;;;12.40;99.90;;;;;;10368378;28;20215;-80
2022/11/07 03:01:01;;;;;;;4.67;4.37;;;12.40;99.90;;;;;;10367636;28;20226;-79
2022/11/07 03:06:04;;;;;;;4.07;3.87;;;12.50;99.90;;;;;;10381645;28;20253;-80
2022/11/07 03:11:07;;;;;;;5.07;4.67;;;12.50;99.90;;;;;;10382830;28;20187;-79
2022/11/07 03:16:11;;;;;;;5.10;4.60;;;12.60;99.90;;;;;;10383353;28;20230;-80
2022/11/07 03:21:13;;;;;;;7.93;7.10;;;12.60;99.90;;;;;;10383839;28;20214;-80
2022/11/07 03:26:16;;;;;;;4.90;4.60;;;12.60;99.90;;;;;;10382892;28;20238;-79
2022/11/07 03:31:18;;;;;;;4.63;4.43;;;12.70;99.90;;;;;;10383152;28;20198;-79
2022/11/07 03:36:20;;;;;;;4.43;4.10;;;12.70;99.90;;;;;;10381209;28;20571;-81
2022/11/07 03:41:24;;;;;;;5.60;5.30;;;12.70;99.90;;;;;;10380104;28;20218;-81
2022/11/07 03:46:26;;;;;;;4.63;4.30;;;12.70;99.90;;;;;;10379421;28;20222;-81
2022/11/07 03:51:28;;;;;;;4.80;4.50;;;12.70;99.90;;;;;;10361297;28;20265;-82
2022/11/07 03:56:31;;;;;;;5.17;4.87;;;12.80;99.90;;;;;;10382029;28;20236;-80
2022/11/07 04:01:33;;;;;;;3.90;3.70;;;12.80;99.90;;;;;;10398218;28;20284;-81
2022/11/07 04:06:35;;;;;;;5.10;4.80;;;12.80;99.90;;;;;;10379534;28;20218;-82
2022/11/07 04:22:18;;;;;;;3.80;3.50;;;12.70;99.90;;;;;;10344380;28;20225;-82
2022/11/07 04:27:45;;;;;;;4.53;4.33;;;12.60;99.90;;;;;;10359974;28;20224;-82
2022/11/07 04:32:48;;;;;;;4.80;4.40;;;12.70;99.90;;;;;;10376693;28;20194;-81
2022/11/07 04:37:51;;;;;;;4.87;4.57;;;12.60;99.90;;;;;;10377388;28;20219;-82
2022/11/07 04:42:55;;;;;;;6.03;5.57;;;12.60;99.90;;;;;;10377785;28;20211;-81
2022/11/07 04:47:57;;;;;;;5.40;5.03;;;12.60;99.90;;;;;;10375951;28;20211;-82
2022/11/07 04:52:59;;;;;;;4.13;3.63;;;12.60;99.90;;;;;;10380996;28;20218;-81
2022/11/07 04:58:02;;;;;;;5.03;4.73;;;12.60;99.90;;;;;;10377197;28;20249;-82
2022/11/07 05:03:04;;;;;;;7.80;7.20;;;12.60;99.90;;;;;;10377427;28;20214;-80
2022/11/07 05:08:06;;;;;;;5.10;4.80;;;12.60;99.90;;;;;;10382829;28;20221;-80
2022/11/07 05:13:10;;;;;;;5.00;4.70;;;12.60;99.90;;;;;;10383996;28;20186;-80
2022/11/07 05:18:12;;;;;;;4.27;4.07;;;12.50;99.90;;;;;;10382326;28;20218;-82
2022/11/07 05:23:17;;;;;;;5.50;5.23;;;12.40;99.90;;;;;;10390914;28;20211;-80
2022/11/07 05:28:22;;;;;;;5.90;5.43;;;12.40;99.90;;;;;;10384361;28;20229;-82
2022/11/07 05:33:24;;;;;;;4.87;4.50;;;12.30;99.90;;;;;;10381903;28;20223;-81
2022/11/07 05:38:26;;;;;;;4.67;4.33;;;12.30;99.90;;;;;;10379327;28;20302;-82
2022/11/07 05:43:30;;;;;;;4.13;4.03;;;12.20;99.90;;;;;;10381270;28;20210;-81
2022/11/07 05:48:32;;;;;;;4.17;4.03;;;12.20;99.90;;;;;;10377782;28;20219;-81
2022/11/07 05:53:34;;;;;;;5.50;5.10;;;12.20;99.90;;;;;;10380706;28;20201;-82
2022/11/07 05:58:38;;;;;;;4.90;4.50;;;12.20;99.90;;;;;;10386295;28;20225;-81
2022/11/07 06:03:40;;;;;;;4.90;4.70;;;12.20;99.90;;;;;;10384863;28;20295;-81
2022/11/07 06:08:42;;;;;;;4.83;4.47;;;12.20;99.90;;;;;;10370034;28;20580;-81
2022/11/07 06:13:45;;;;;;;6.00;5.50;;;12.20;99.90;;;;;;10389702;28;20214;-81
2022/11/07 06:18:47;;;;;;;5.80;5.40;;;12.20;99.90;;;;;;10390378;28;20246;-82
2022/11/07 06:23:49;;;;;;;7.63;6.80;;;12.20;99.90;;;;;;10392120;28;20225;-82
2022/11/07 06:28:53;;;;;;;5.93;5.53;;;12.20;99.90;;;;;;10390632;28;20214;-82
2022/11/07 06:33:55;;;;;;;5.67;5.10;;;12.20;99.90;;;;;;10389047;28;20186;-82
2022/11/07 06:38:57;;;;;;;6.03;5.57;;;12.20;99.90;;;;;;10384240;28;20242;-81
2022/11/07 06:44:00;;;;;;;6.03;5.43;;;12.20;99.90;;;;;;10385264;28;20698;-81
2022/11/07 06:49:03;;;;;;;5.43;5.03;;;12.30;99.90;;;;;;10354210;28;20223;-81
2022/11/07 06:54:05;;;;;;;6.60;6.00;;;12.30;99.90;;;;;;10366173;28;20214;-80
2022/11/07 06:59:08;;;;;;;6.20;5.70;;;12.30;99.90;;;;;;10384409;28;20225;-82
2022/11/07 07:04:11;;;;;;;8.40;7.73;;;12.40;99.90;;;;;;10383630;28;20265;-80
2022/11/07 07:09:13;;;;;;;7.43;6.80;;;12.40;99.90;;;;;;10397862;28;20215;-81
2022/11/07 07:14:16;;;;;;;19.77;9.60;;;12.50;99.90;;;;;;10378473;28;20193;-79
2022/11/07 07:19:18;;;;;;;11.70;10.70;;;12.50;99.90;;;;;;10377018;28;20215;-80
2022/11/07 07:24:20;;;;;;;11.00;10.13;;;12.60;99.90;;;;;;10377594;28;20341;-80
2022/11/07 07:29:23;;;;;;;8.83;8.00;;;12.60;99.90;;;;;;10359378;28;20214;-80
2022/11/07 07:34:25;;;;;;;8.73;7.70;;;12.60;99.90;;;;;;10375450;28;20183;-79
2022/11/07 07:39:28;;;;;;;7.93;7.33;;;12.60;99.90;;;;;;10374377;28;20341;-79
2022/11/07 07:44:31;;;;;;;9.83;7.67;;;12.60;99.90;;;;;;10375557;28;20675;-79
2022/11/07 07:49:33;;;;;;;5.30;4.80;;;12.60;99.90;;;;;;10376946;28;20194;-80
2022/11/07 07:54:36;;;;;;;6.53;5.93;;;12.70;99.90;;;;;;10380055;28;20331;-80
2022/11/07 07:59:39;;;;;;;6.30;5.60;;;12.70;99.90;;;;;;10375221;28;20199;-82
2022/11/07 08:04:42;;;;;;;7.33;6.37;;;12.80;99.90;;;;;;10378169;28;20218;-80
2022/11/07 08:09:44;;;;;;;5.40;5.07;;;12.90;99.90;;;;;;10375581;28;20203;-80
2022/11/07 08:14:47;;;;;;;5.87;5.40;;;13.00;99.90;;;;;;10360896;28;20244;-81
2022/11/07 08:19:49;;;;;;;5.37;5.07;;;13.10;99.90;;;;;;10378258;28;20282;-80
2022/11/07 08:24:51;;;;;;;5.20;4.70;;;13.20;99.90;;;;;;10379505;28;20222;-80
2022/11/07 08:29:54;;;;;;;6.50;3.90;;;13.40;99.90;;;;;;10376523;28;20233;-81
2022/11/07 08:34:57;;;;;;;8.50;7.53;;;13.50;99.90;;;;;;10376353;28;20738;-80
2022/11/07 08:39:59;;;;;;;5.17;4.77;;;13.50;99.90;;;;;;10378499;28;20205;-80
2022/11/07 08:45:02;;;;;;;6.20;5.50;;;13.60;99.90;;;;;;10377273;28;20234;-81
2022/11/07 08:50:05;;;;;;;6.50;5.13;;;13.60;99.90;;;;;;10378986;28;20202;-82
2022/11/07 08:55:08;;;;;;;5.50;5.10;;;13.70;99.90;;;;;;10378770;28;20265;-82
2022/11/07 09:00:12;;;;;;;4.63;4.33;;;13.70;99.90;;;;;;10378156;28;20570;-80
2022/11/07 09:05:15;;;;;;;7.13;4.63;;;13.80;99.90;;;;;;10377964;28;20222;-80
2022/11/07 09:10:17;;;;;;;4.93;4.27;;;13.90;99.90;;;;;;10379093;28;20285;-80
2022/11/07 09:15:21;;;;;;;5.00;4.60;;;14.00;99.90;;;;;;10361298;28;20276;-79
2022/11/07 09:20:23;;;;;;;5.80;5.07;;;14.10;99.90;;;;;;10378200;28;20219;-81
2022/11/07 09:25:26;;;;;;;7.23;4.80;;;14.10;99.90;;;;;;10360858;28;20679;-80
2022/11/07 09:30:29;;;;;;;10.80;5.70;;;14.20;99.90;;;;;;10378431;28;20195;-83
2022/11/07 09:35:31;;;;;;;4.97;4.17;;;14.30;99.90;;;;;;10360585;28;20646;-82
2022/11/07 09:40:44;;;;;;;6.30;4.80;;;14.30;99.90;;;;;;10376608;28;20290;-82
2022/11/07 09:45:58;;;;;;;5.70;5.10;;;14.30;99.90;;;;;;10375574;28;20297;-81
2022/11/07 09:51:00;;;;;;;8.63;4.57;;;14.40;99.90;;;;;;10360564;28;20194;-80
2022/11/07 09:56:05;;;;;;;4.37;4.07;;;14.40;99.90;;;;;;10386664;28;20218;-81
2022/11/07 10:01:13;;;;;;;6.10;5.50;;;14.40;99.90;;;;;;10386019;28;20226;-80
2022/11/07 10:06:23;;;;;;;4.33;3.93;;;14.50;99.90;;;;;;10387386;28;20226;-80
2022/11/07 10:11:33;;;;;;;7.40;5.43;;;14.50;99.90;;;;;;10386109;28;20329;-80
2022/11/07 10:16:47;;;;;;;6.87;5.00;;;14.60;99.90;;;;;;10392184;28;20230;-80
2022/11/07 10:21:59;;;;;;;4.20;3.90;;;14.60;99.90;;;;;;10367203;28;20214;-80
2022/11/07 10:27:02;;;;;;;5.97;4.83;;;14.60;99.90;;;;;;10366453;28;20226;-80
2022/11/07 10:32:16;;;;;;;7.00;5.80;;;14.60;99.90;;;;;;10375648;28;20292;-80
2022/11/07 10:37:18;;;;;;;5.37;4.90;;;14.70;99.90;;;;;;10362060;28;20446;-80
2022/11/07 10:42:23;;;;;;;5.20;4.70;;;14.80;99.90;;;;;;10380247;28;20210;-81
2022/11/07 10:47:27;;;;;;;5.30;4.83;;;14.90;99.90;;;;;;10364496;28;20246;-80
2022/11/07 10:52:30;;;;;;;8.43;5.40;;;15.00;99.90;;;;;;10378037;28;20647;-80
2022/11/07 10:57:34;;;;;;;5.13;4.73;;;15.00;99.90;;;;;;10375569;28;20730;-79
2022/11/07 11:02:47;;;;;;;5.50;4.40;;;15.10;99.90;;;;;;10377946;28;20222;-79
2022/11/07 11:07:49;;;;;;;6.10;5.00;;;15.10;99.90;;;;;;10367330;28;20276;-79
2022/11/07 11:12:52;;;;;;;5.03;4.57;;;15.00;99.90;;;;;;10365172;28;20207;-79
2022/11/07 11:18:01;;;;;;;7.07;4.03;;;14.90;99.90;;;;;;10372582;28;20246;-80
2022/11/07 11:23:06;;;;;;;5.77;5.37;;;14.90;99.90;;;;;;10346018;28;20226;-79
2022/11/07 11:28:14;;;;;;;5.27;4.87;;;14.90;99.90;;;;;;10358883;28;20286;-81
2022/11/07 11:33:21;;;;;;;5.13;4.73;;;14.80;99.90;;;;;;10362487;28;20824;-79
2022/11/07 11:38:28;;;;;;;5.30;4.80;;;14.80;99.90;;;;;;10374620;28;20222;-80
2022/11/07 11:43:38;;;;;;;4.60;4.20;;;15.00;99.90;;;;;;10366057;28;20648;-81
2022/11/07 11:48:48;;;;;;;4.30;4.00;;;15.10;99.90;;;;;;10361593;28;20647;-81
2022/11/07 11:53:50;;;;;;;6.40;5.40;;;15.20;99.90;;;;;;10370794;28;20282;-82
2022/11/07 11:59:02;;;;;;;5.33;4.50;;;15.30;99.90;;;;;;10378292;28;20721;-81
2022/11/07 12:04:25;;;;;;;4.53;4.23;;;15.40;99.90;;;;;;10370394;28;20223;-80
2022/11/07 12:09:34;;;;;;;4.60;4.30;;;15.60;99.90;;;;;;10372913;28;20249;-81
2022/11/07 12:14:52;;;;;;;5.17;4.37;;;15.60;99.90;;;;;;10381377;28;20233;-81
2022/11/07 12:20:03;;;;;;;3.20;2.90;;;15.70;99.90;;;;;;10372967;28;20289;-81
2022/11/07 12:25:15;;;;;;;4.17;3.97;;;15.70;99.90;;;;;;10386333;28;20215;-80
2022/11/07 12:30:22;;;;;;;4.30;4.00;;;15.70;99.90;;;;;;10385003;28;20203;-79
2022/11/07 12:35:37;;;;;;;5.83;3.93;;;15.80;99.90;;;;;;10377596;28;20232;-82
2022/11/07 12:40:46;;;;;;;4.80;3.57;;;15.80;99.90;;;;;;10377234;28;20647;-79
2022/11/07 12:45:55;;;;;;;4.63;4.20;;;15.90;99.90;;;;;;10363541;28;20607;-78
2022/11/07 12:51:08;;;;;;;4.47;3.90;;;15.90;99.90;;;;;;10380379;28;20248;-81
2022/11/07 12:56:13;;;;;;;3.53;3.23;;;15.90;99.90;;;;;;10360553;28;20238;-80
2022/11/07 13:01:23;;;;;;;3.50;3.20;;;15.90;99.90;;;;;;10389512;28;20199;-83
2022/11/07 13:06:35;;;;;;;3.50;2.40;;;15.80;99.90;;;;;;10378721;28;20206;-79
2022/11/07 13:11:47;;;;;;;4.90;4.43;;;15.70;99.90;;;;;;10386220;28;20269;-82
2022/11/07 13:16:51;;;;;;;4.33;3.77;;;15.50;99.90;;;;;;10435598;23;20694;-79
2022/11/07 13:22:01;;;;;;;4.27;3.87;;;15.30;99.90;;;;;;10539050;28;20291;-79
2022/11/07 13:27:15;;;;;;;3.43;3.13;;;15.20;99.90;;;;;;10564686;28;20219;-79
2022/11/07 13:32:17;;;;;;;4.17;3.83;;;15.10;99.90;;;;;;10564806;28;20186;-78
2022/11/07 13:37:25;;;;;;;4.37;4.07;;;15.00;99.90;;;;;;10564876;28;20212;-79
2022/11/07 13:42:30;;;;;;;3.70;3.50;;;14.90;99.90;;;;;;10526652;28;20264;-79
2022/11/07 13:47:38;;;;;;;6.53;4.30;;;14.90;99.90;;;;;;10553290;28;20216;-79
2022/11/07 13:52:48;;;;;;;4.20;3.77;;;14.90;99.90;;;;;;10561847;28;20603;-79
2022/11/07 13:57:54;;;;;;;4.00;3.70;;;14.90;99.90;;;;;;10529983;28;20223;-79
2022/11/07 14:02:58;;;;;;;4.40;4.00;;;14.90;99.90;;;;;;10565614;28;20592;-79
2022/11/07 14:08:05;;;;;;;4.83;3.43;;;15.00;99.90;;;;;;10566685;28;20211;-80
2022/11/07 14:13:09;;;;;;;4.90;2.90;;;15.10;99.90;;;;;;10561897;28;20192;-80
2022/11/07 14:18:14;;;;;;;3.90;3.70;;;15.20;99.90;;;;;;10565481;28;20218;-79
2022/11/07 14:23:20;;;;;;;4.60;4.20;;;15.20;99.90;;;;;;10555820;28;20212;-78
2022/11/07 14:28:22;;;;;;;4.30;3.73;;;15.20;99.90;;;;;;10545539;28;20807;-80
2022/11/07 14:33:24;;;;;;;3.60;3.30;;;15.20;99.90;;;;;;10539269;28;20596;-78
2022/11/07 14:38:28;;;;;;;8.67;5.27;;;15.20;99.90;;;;;;10553424;28;20212;-79
2022/11/07 14:43:30;;;;;;;6.53;5.97;;;15.20;99.90;;;;;;10518316;28;20208;-78
2022/11/07 14:48:34;;;;;;;5.07;4.63;;;15.10;99.90;;;;;;10556976;28;20222;-80
2022/11/07 14:53:48;;;;;;;4.90;4.47;;;15.10;99.90;;;;;;10560737;28;20249;-80
2022/11/07 14:58:51;;;;;;;4.30;3.90;;;15.10;99.90;;;;;;10561339;28;20215;-80
2022/11/07 15:03:56;;;;;;;5.30;4.80;;;15.10;99.90;;;;;;10561292;28;20220;-79
2022/11/07 15:09:01;;;;;;;4.90;4.40;;;15.10;99.90;;;;;;10543437;28;20224;-80
2022/11/07 15:14:05;;;;;;;6.40;4.83;;;15.00;99.90;;;;;;10569711;28;20233;-80
2022/11/07 15:19:09;;;;;;;4.87;4.30;;;15.00;99.90;;;;;;10538649;28;20669;-80
2022/11/07 15:24:37;;;;;;;6.50;4.33;;;15.00;99.90;;;;;;10556426;28;20230;-80
2022/11/07 15:29:39;;;;;;;6.07;5.47;;;14.90;99.90;;;;;;10545513;28;20223;-79
2022/11/07 15:34:42;;;;;;;6.20;5.33;;;14.90;99.90;;;;;;10556480;28;20188;-78
2022/11/07 15:39:46;;;;;;;5.87;3.90;;;14.80;99.90;;;;;;10561486;28;20215;-78
2022/11/07 15:44:48;;;;;;;6.13;5.60;;;14.80;99.90;;;;;;10529322;28;20636;-79
2022/11/07 15:49:50;;;;;;;5.37;4.90;;;14.80;99.90;;;;;;10521901;28;20306;-80
2022/11/07 15:54:53;;;;;;;6.63;6.03;;;14.70;99.90;;;;;;10553698;28;20188;-79
2022/11/07 15:59:55;;;;;;;6.87;6.27;;;14.70;99.90;;;;;;10535453;28;20215;-79
2022/11/07 16:04:57;;;;;;;6.13;5.57;;;14.70;99.90;;;;;;10551198;28;20227;-79
2022/11/07 16:10:02;;;;;;;6.10;5.70;;;14.60;99.90;;;;;;10552669;28;20220;-80
2022/11/07 16:15:05;;;;;;;9.60;6.20;;;14.50;99.90;;;;;;10564273;28;20201;-79
2022/11/07 16:20:15;;;;;;;10.83;5.53;;;14.40;99.90;;;;;;10549841;28;20199;-79
2022/11/07 16:25:23;;;;;;;5.80;5.37;;;14.30;99.90;;;;;;10552471;28;20230;-79
2022/11/07 16:30:25;;;;;;;6.70;6.20;;;14.20;99.90;;;;;;10549688;28;20192;-81
2022/11/07 16:35:27;;;;;;;7.30;6.70;;;14.10;99.90;;;;;;10513850;28;20212;-79
2022/11/07 16:40:31;;;;;;;7.80;7.30;;;14.00;99.90;;;;;;10565945;28;20695;-80
2022/11/07 16:45:34;;;;;;;5.50;5.10;;;13.80;99.90;;;;;;10551915;28;20242;-80
2022/11/07 16:50:36;;;;;;;6.47;5.87;;;13.70;99.90;;;;;;10548069;28;20270;-81
2022/11/07 16:55:42;;;;;;;6.80;6.20;;;13.60;99.90;;;;;;10545468;28;20219;-80
2022/11/07 17:00:44;;;;;;;9.33;8.43;;;13.60;99.90;;;;;;10529319;28;20219;-81
2022/11/07 17:05:47;;;;;;;13.30;11.90;;;13.50;99.90;;;;;;10529152;28;20224;-81
2022/11/07 17:10:50;;;;;;;7.40;6.80;;;13.40;99.90;;;;;;10520062;28;20204;-80
2022/11/07 17:15:53;;;;;;;11.20;10.20;;;13.40;99.90;;;;;;10509704;28;20246;-81
2022/11/07 17:20:55;;;;;;;14.10;13.00;;;13.30;99.90;;;;;;10537041;28;20195;-81
2022/11/07 17:26:00;;;;;;;7.80;7.00;;;13.30;99.90;;;;;;10548777;28;20254;-79
2022/11/07 17:31:02;;;;;;;7.73;6.03;;;13.20;99.90;;;;;;10544986;28;20196;-81
2022/11/07 17:36:05;;;;;;;10.77;9.30;;;13.20;99.90;;;;;;10579944;28;20264;-80
2022/11/07 17:41:16;;;;;;;6.33;5.93;;;13.20;99.90;;;;;;10531981;28;20207;-82
2022/11/07 17:46:24;;;;;;;5.50;5.10;;;13.10;99.90;;;;;;10552188;28;20223;-81
2022/11/07 17:51:26;;;;;;;5.30;4.80;;;13.10;99.90;;;;;;10535180;28;20192;-81
2022/11/07 17:56:32;;;;;;;5.50;5.00;;;13.10;99.90;;;;;;10556181;28;20219;-80
2022/11/07 18:01:36;;;;;;;6.87;6.20;;;13.00;99.90;;;;;;10556555;28;20536;-81
2022/11/07 18:06:40;;;;;;;5.97;5.27;;;13.00;99.90;;;;;;10553768;28;20232;-81
2022/11/07 18:11:44;;;;;;;10.70;8.40;;;13.00;99.90;;;;;;10536272;28;20195;-81
2022/11/07 18:16:46;;;;;;;8.90;7.63;;;12.90;99.90;;;;;;10561492;28;20228;-81
2022/11/07 18:21:48;;;;;;;8.87;8.17;;;12.90;99.90;;;;;;10541295;28;20256;-80
2022/11/07 18:26:52;;;;;;;9.13;8.33;;;12.90;99.90;;;;;;10530960;28;20228;-79
2022/11/07 18:31:54;;;;;;;10.53;9.57;;;13.00;99.90;;;;;;10525680;28;20242;-79
2022/11/07 18:36:56;;;;;;;9.80;8.50;;;13.00;99.90;;;;;;10565993;28;20299;-80
2022/11/07 18:41:59;;;;;;;9.23;8.50;;;13.00;99.90;;;;;;10550967;28;20204;-80
2022/11/07 18:47:02;;;;;;;9.17;8.40;;;13.00;99.90;;;;;;10542117;28;20679;-79
2022/11/07 18:52:04;;;;;;;8.47;7.60;;;13.00;99.90;;;;;;10549352;28;20196;-79
2022/11/07 18:57:08;;;;;;;8.93;7.60;;;13.00;99.90;;;;;;10550901;28;20219;-79
2022/11/07 19:02:10;;;;;;;12.17;11.17;;;13.00;99.90;;;;;;10547222;28;20700;-79
2022/11/07 19:07:12;;;;;;;10.50;8.70;;;12.90;99.90;;;;;;10553907;28;20251;-78
2022/11/07 19:12:15;;;;;;;10.90;9.90;;;12.80;99.90;;;;;;10544277;28;20235;-80
2022/11/07 19:17:23;;;;;;;9.70;8.90;;;12.80;99.90;;;;;;10552797;28;20259;-82
2022/11/07 19:22:26;;;;;;;31.13;23.37;;;12.80;99.90;;;;;;10562651;28;20227;-81
2022/11/07 19:27:31;;;;;;;39.87;29.87;;;12.70;99.90;;;;;;10544542;28;20305;-78
2022/11/07 19:32:33;;;;;;;90.60;62.37;;;12.70;99.90;;;;;;10548701;28;20237;-82
2022/11/07 19:37:36;;;;;;;45.30;37.50;;;12.60;99.90;;;;;;10551145;28;20227;-82
2022/11/07 19:42:40;;;;;;;14.70;13.03;;;12.60;99.90;;;;;;10527019;28;20303;-82
2022/11/07 19:47:42;;;;;;;19.53;17.80;;;12.60;99.90;;;;;;10512924;28;20331;-82
2022/11/07 19:52:45;;;;;;;20.07;18.23;;;12.50;99.90;;;;;;10557512;28;20204;-82
2022/11/07 19:57:50;;;;;;;19.30;17.40;;;12.40;99.90;;;;;;10532458;28;20580;-78
2022/11/07 20:02:52;;;;;;;13.50;12.30;;;12.40;99.90;;;;;;10545387;28;20212;-81
2022/11/07 20:07:55;;;;;;;10.50;9.57;;;12.40;99.90;;;;;;10556294;28;20250;-82
2022/11/07 20:12:58;;;;;;;9.97;8.23;;;12.30;99.90;;;;;;10532191;28;20699;-79
2022/11/07 20:18:00;;;;;;;12.83;9.77;;;12.30;99.90;;;;;;10557005;28;20227;-79
2022/11/07 20:23:02;;;;;;;12.53;11.50;;;12.30;99.90;;;;;;10523861;28;20646;-79
2022/11/07 20:28:06;;;;;;;9.00;8.30;;;12.30;99.90;;;;;;10562234;28;20548;-79
2022/11/07 20:33:08;;;;;;;9.40;8.53;;;12.30;99.90;;;;;;10553277;28;20192;-78
2022/11/07 20:38:10;;;;;;;9.87;9.07;;;12.30;99.90;;;;;;10555153;28;20558;-81
2022/11/07 20:43:13;;;;;;;9.50;8.43;;;12.30;99.90;;;;;;10537791;28;20306;-79
2022/11/07 20:48:16;;;;;;;9.70;8.63;;;12.30;99.90;;;;;;10542517;28;20882;-80
2022/11/07 20:53:18;;;;;;;10.33;9.33;;;12.30;99.90;;;;;;10550555;28;20198;-80
2022/11/07 20:58:21;;;;;;;9.83;8.00;;;12.30;99.90;;;;;;10569236;28;20239;-80
2022/11/07 21:03:23;;;;;;;10.37;9.33;;;12.20;99.90;;;;;;10543982;28;20207;-83
2022/11/07 21:08:26;;;;;;;7.20;6.67;;;12.20;99.90;;;;;;10561153;28;20698;-82
2022/11/07 21:13:29;;;;;;;6.57;6.17;;;12.20;99.90;;;;;;10545433;28;20219;-83
2022/11/07 21:18:32;;;;;;;7.60;6.90;;;12.10;99.90;;;;;;10498800;28;20228;-83
2022/11/07 21:23:34;;;;;;;6.80;6.30;;;12.10;99.90;;;;;;10518612;28;20742;-82
2022/11/07 21:28:41;;;;;;;7.30;6.50;;;12.10;99.90;;;;;;10524402;28;20220;-83
2022/11/07 21:33:46;;;;;;;6.30;5.80;;;12.10;99.90;;;;;;10537929;28;20500;-83
2022/11/07 21:38:48;;;;;;;6.40;5.70;;;12.10;99.90;;;;;;10520379;28;20703;-83
2022/11/07 21:43:51;;;;;;;5.80;5.40;;;12.00;99.90;;;;;;10523423;28;20274;-82
2022/11/07 21:48:55;;;;;;;7.63;6.83;;;12.00;99.90;;;;;;10524469;28;20243;-83
2022/11/07 21:53:58;;;;;;;8.80;6.83;;;12.00;99.90;;;;;;10522854;28;20672;-82
2022/11/07 21:59:03;;;;;;;6.80;6.20;;;12.00;99.90;;;;;;10525562;28;20212;-83
2022/11/07 22:04:07;;;;;;;5.80;5.50;;;12.00;99.90;;;;;;10521914;28;20243;-82
2022/11/07 22:09:11;;;;;;;9.30;8.40;;;12.00;99.90;;;;;;10520830;28;20223;-81
2022/11/07 22:14:15;;;;;;;6.00;5.50;;;11.90;99.90;;;;;;10500342;28;20693;-83
2022/11/07 22:19:18;;;;;;;7.83;6.80;;;11.90;99.90;;;;;;10456149;28;20217;-81
2022/11/07 22:24:20;;;;;;;6.20;5.80;;;11.90;99.90;;;;;;10456492;28;20213;-78
2022/11/07 22:29:23;;;;;;;6.80;5.80;;;11.90;99.90;;;;;;10499013;28;20217;-80
2022/11/07 22:34:25;;;;;;;6.17;5.77;;;12.00;99.90;;;;;;10515604;28;20207;-78
2022/11/07 22:39:28;;;;;;;7.43;6.73;;;12.00;99.90;;;;;;10538458;28;20212;-80
2022/11/07 22:44:31;;;;;;;7.60;7.00;;;12.10;99.90;;;;;;10499161;28;20216;-78
2022/11/07 22:49:33;;;;;;;9.27;8.47;;;12.10;99.90;;;;;;10513324;28;20243;-80
2022/11/07 22:54:35;;;;;;;10.40;9.00;;;12.10;99.90;;;;;;10528325;28;20196;-80
2022/11/07 22:59:39;;;;;;;7.07;6.40;;;12.10;99.90;;;;;;10519111;28;20227;-80
2022/11/07 23:04:43;;;;;;;9.53;7.13;;;12.10;99.90;;;;;;10518187;28;20235;-80
2022/11/07 23:09:45;;;;;;;7.80;7.00;;;12.10;99.90;;;;;;10516696;28;20216;-80
2022/11/07 23:14:48;;;;;;;7.70;7.00;;;12.00;99.90;;;;;;10520801;28;20188;-80
2022/11/07 23:19:52;;;;;;;7.37;6.83;;;12.00;99.90;;;;;;10519316;28;20239;-83
2022/11/07 23:24:55;;;;;;;8.17;7.57;;;12.00;99.90;;;;;;10515004;28;20440;-82
2022/11/07 23:29:58;;;;;;;8.77;8.07;;;12.00;99.90;;;;;;10515381;28;20220;-83
2022/11/07 23:35:00;;;;;;;8.40;7.70;;;12.00;99.90;;;;;;10518340;28;20204;-83
2022/11/07 23:40:02;;;;;;;9.17;8.53;;;12.00;99.90;;;;;;10517160;28;20304;-81
2022/11/07 23:55:48;;;;;;;8.23;7.57;;;11.90;99.90;;;;;;10512676;28;20208;-83
